Time;durP1;ratioP1;P1;durP2;ratioP2;P2;SDS_P1;SDS_P2;PMS_P1;PMS_P2;Temp;Humidity;BMP_temperature;BMP_pressure;BME280_temperature;BME280_humidity;BME280_pressure;Samples;Min_cycle;Max_cycle;Signal;HPM_P1;HPM_P2
2024/02/09 00:00:58;;;;;;;55.08;36.50;;;7.00;87.40;;;;;;5051582;28;20391;-70
2024/02/09 00:03:26;;;;;;;58.67;34.72;;;6.80;89.50;;;;;;5065113;28;20105;-71
2024/02/09 00:05:53;;;;;;;52.08;33.83;;;7.20;88.20;;;;;;5061533;28;20139;-71
2024/02/09 00:08:21;;;;;;;53.47;33.35;;;7.10;86.90;;;;;;5068851;28;20525;-71
2024/02/09 00:10:49;;;;;;;63.85;37.15;;;7.10;87.80;;;;;;5072591;28;20115;-71
2024/02/09 00:13:17;;;;;;;65.68;36.35;;;7.30;87.30;;;;;;5081786;28;20055;-72
2024/02/09 00:15:46;;;;;;;58.55;35.58;;;7.20;87.50;;;;;;5072363;28;20028;-72
2024/02/09 00:18:17;;;;;;;58.53;34.60;;;7.10;87.40;;;;;;5059624;28;20498;-71
2024/02/09 00:20:47;;;;;;;60.00;36.95;;;7.20;87.70;;;;;;5067482;28;20032;-73
2024/02/09 00:23:20;;;;;;;70.93;44.30;;;7.20;87.60;;;;;;5073054;28;20032;-71
2024/02/09 00:25:51;;;;;;;57.50;36.78;;;7.30;87.50;;;;;;5071736;28;20040;-69
2024/02/09 00:28:19;;;;;;;55.33;35.08;;;7.20;87.40;;;;;;5070038;28;20100;-69
2024/02/09 00:30:47;;;;;;;50.38;32.97;;;7.30;87.40;;;;;;5070203;28;20040;-70
2024/02/09 00:33:17;;;;;;;53.25;32.95;;;7.40;86.80;;;;;;5070339;28;20390;-70
2024/02/09 00:35:46;;;;;;;48.22;31.70;;;7.40;86.60;;;;;;5052115;28;20037;-70
2024/02/09 00:38:15;;;;;;;54.42;33.08;;;7.40;86.50;;;;;;5065245;28;20033;-69
2024/02/09 00:40:42;;;;;;;53.20;33.13;;;7.30;86.40;;;;;;5069347;28;20376;-69
2024/02/09 00:43:11;;;;;;;54.35;34.55;;;7.20;86.30;;;;;;5062817;28;20550;-70
2024/02/09 00:45:38;;;;;;;55.80;33.88;;;6.90;87.70;;;;;;5071958;28;20029;-70
2024/02/09 00:48:06;;;;;;;61.10;35.55;;;6.90;88.60;;;;;;5071959;28;20064;-69
2024/02/09 00:50:34;;;;;;;51.92;31.17;;;6.80;88.10;;;;;;5067282;28;20044;-71
2024/02/09 00:53:04;;;;;;;61.28;31.45;;;6.80;88.50;;;;;;5066809;28;20464;-70
2024/02/09 00:55:32;;;;;;;48.88;30.75;;;7.00;88.20;;;;;;5048550;28;20051;-69
2024/02/09 00:58:00;;;;;;;52.35;33.00;;;7.00;87.70;;;;;;5069312;28;20059;-72
2024/02/09 01:00:30;;;;;;;50.90;30.88;;;7.00;87.50;;;;;;5068164;28;20401;-70
2024/02/09 01:02:59;;;;;;;50.20;33.25;;;7.10;87.70;;;;;;5044858;28;20044;-69
2024/02/09 01:05:26;;;;;;;49.40;32.10;;;6.70;89.20;;;;;;5056475;28;20376;-70
2024/02/09 01:07:53;;;;;;;46.28;30.95;;;6.90;88.60;;;;;;5053549;28;20480;-71
2024/02/09 01:10:20;;;;;;;50.78;32.00;;;7.00;88.10;;;;;;5062077;28;20480;-69
2024/02/09 02:44:46;;;;;;;58.63;35.70;;;5.20;91.50;;;;;;5064850;28;20546;-69
2024/02/09 02:47:13;;;;;;;;;;;4.80;91.50;;;;;;5074211;28;20033;-71
2024/02/09 03:06:16;;;;;;;55.20;32.65;;;4.90;91.70;;;;;;5070880;28;20093;-69
2024/02/09 03:08:43;;;;;;;53.28;32.72;;;4.80;92.60;;;;;;5069258;28;20063;-71
2024/02/09 03:11:15;;;;;;;49.78;31.35;;;4.80;92.20;;;;;;5070684;28;20116;-71
2024/02/09 03:13:46;;;;;;;48.33;31.85;;;5.00;92.20;;;;;;5046727;28;20038;-70
2024/02/09 03:16:15;;;;;;;53.53;32.38;;;5.10;91.80;;;;;;5050929;28;20041;-71
2024/02/09 03:18:44;;;;;;;54.53;31.92;;;4.80;91.90;;;;;;5063355;28;20037;-70
2024/02/09 03:21:19;;;;;;;48.17;32.50;;;4.90;92.00;;;;;;5050499;28;20120;-70
2024/02/09 03:23:50;;;;;;;52.55;31.83;;;5.00;91.70;;;;;;5042867;28;20032;-70
2024/02/09 03:26:17;;;;;;;47.35;29.58;;;5.00;92.00;;;;;;5067066;28;20041;-69
2024/02/09 03:28:44;;;;;;;45.70;28.63;;;5.10;91.70;;;;;;5044101;28;20121;-68
2024/02/09 03:31:12;;;;;;;41.50;27.38;;;5.20;91.40;;;;;;5035591;28;20129;-69
2024/02/09 03:33:40;;;;;;;51.90;28.83;;;5.30;91.40;;;;;;5051104;28;20373;-69
2024/02/09 03:36:08;;;;;;;49.10;28.63;;;5.40;91.30;;;;;;5033557;28;20044;-71
2024/02/09 03:38:36;;;;;;;47.70;29.48;;;5.50;91.20;;;;;;5051168;28;20059;-70
2024/02/09 03:41:04;;;;;;;49.78;31.92;;;5.40;91.10;;;;;;5033509;28;20519;-71
2024/02/09 03:43:31;;;;;;;43.78;29.80;;;5.10;91.60;;;;;;5033367;28;20049;-70
2024/02/09 03:46:00;;;;;;;45.53;30.33;;;5.20;91.60;;;;;;5058838;28;20032;-70
2024/02/09 03:48:27;;;;;;;50.33;29.48;;;5.40;91.20;;;;;;5074160;28;20480;-70
2024/02/09 03:50:55;;;;;;;50.00;25.95;;;5.20;90.90;;;;;;5059024;28;20037;-70
2024/02/09 03:53:22;;;;;;;37.75;25.67;;;4.70;92.60;;;;;;5070040;28;20036;-70
2024/02/09 03:55:49;;;;;;;35.40;23.17;;;4.80;93.40;;;;;;5070250;28;20036;-70
2024/02/09 03:58:17;;;;;;;36.42;24.23;;;4.80;93.00;;;;;;5041167;28;20037;-71
2024/02/09 04:00:44;;;;;;;36.00;24.63;;;5.10;93.00;;;;;;5059511;28;20113;-70
2024/02/09 04:03:12;;;;;;;43.03;27.30;;;5.20;92.40;;;;;;5061793;28;20029;-70
2024/02/09 04:05:39;;;;;;;38.55;26.17;;;5.20;91.90;;;;;;5067431;28;20044;-70
2024/02/09 04:08:06;;;;;;;40.85;24.63;;;5.20;91.80;;;;;;5053861;28;20492;-71
2024/02/09 04:10:36;;;;;;;34.30;21.77;;;5.30;91.80;;;;;;5054466;28;20043;-71
2024/02/09 04:13:12;;;;;;;40.10;24.13;;;5.40;91.70;;;;;;5053881;28;20029;-69
2024/02/09 04:15:40;;;;;;;36.67;23.20;;;5.40;91.50;;;;;;5054159;28;20036;-70
2024/02/09 04:18:08;;;;;;;40.83;24.00;;;5.30;91.40;;;;;;5069381;28;20105;-69
2024/02/09 04:20:37;;;;;;;36.40;22.02;;;5.30;91.50;;;;;;5073721;28;20048;-70
2024/02/09 04:23:06;;;;;;;33.03;21.95;;;5.20;91.40;;;;;;5073463;28;20597;-70
2024/02/09 04:25:33;;;;;;;38.20;22.92;;;5.30;91.80;;;;;;5074070;28;20456;-70
2024/02/09 04:28:03;;;;;;;38.78;23.83;;;5.40;91.50;;;;;;5055484;28;20037;-70
2024/02/09 04:30:30;;;;;;;42.92;25.40;;;5.00;91.80;;;;;;5054134;28;20041;-70
2024/02/09 04:32:57;;;;;;;43.90;26.33;;;4.90;92.30;;;;;;5085369;28;20496;-70
2024/02/09 04:35:26;;;;;;;45.47;28.40;;;4.90;92.00;;;;;;5059607;28;20041;-68
2024/02/09 04:37:53;;;;;;;46.67;27.92;;;4.70;92.40;;;;;;5060175;28;20399;-72
2024/02/09 04:40:20;;;;;;;46.63;30.38;;;4.40;92.60;;;;;;5073632;28;20428;-71
2024/02/09 04:42:48;;;;;;;52.80;30.45;;;4.30;92.90;;;;;;5052556;28;20041;-72
2024/02/09 04:45:15;;;;;;;50.63;30.85;;;4.20;93.60;;;;;;5054345;28;20059;-69
2024/02/09 04:47:42;;;;;;;52.75;30.67;;;4.20;93.70;;;;;;5081176;28;20537;-68
2024/02/09 04:50:10;;;;;;;55.30;32.33;;;4.30;93.60;;;;;;5066559;28;20554;-69
2024/02/09 04:52:37;;;;;;;48.78;29.23;;;4.50;93.20;;;;;;5073429;28;20116;-71
2024/02/09 04:55:06;;;;;;;50.83;32.58;;;4.70;92.80;;;;;;5072809;28;20032;-70
2024/02/09 04:57:33;;;;;;;50.50;33.63;;;4.50;92.00;;;;;;5072494;28;20056;-71
2024/02/09 05:00:02;;;;;;;49.60;32.25;;;4.30;92.30;;;;;;5072923;28;20036;-70
2024/02/09 05:02:37;;;;;;;52.60;34.20;;;4.30;92.70;;;;;;5072942;28;20041;-70
2024/02/09 05:05:08;;;;;;;56.40;32.95;;;4.30;92.50;;;;;;5057693;28;20303;-71
2024/02/09 05:07:36;;;;;;;55.60;32.70;;;4.40;92.40;;;;;;5061817;28;20090;-71
2024/02/09 05:10:03;;;;;;;53.03;32.42;;;4.30;92.30;;;;;;5072223;28;20040;-70
2024/02/09 05:12:31;;;;;;;35.83;26.45;;;4.40;92.30;;;;;;5072933;28;20037;-71
2024/02/09 05:14:58;;;;;;;49.08;30.92;;;4.30;92.20;;;;;;5072144;28;20032;-71
2024/02/09 05:17:26;;;;;;;48.35;30.63;;;4.30;92.40;;;;;;5072614;28;20036;-72
2024/02/09 05:19:57;;;;;;;39.45;26.98;;;4.10;92.50;;;;;;5071974;28;20359;-70
2024/02/09 05:22:27;;;;;;;41.47;29.00;;;3.90;92.70;;;;;;5072708;28;20668;-71
2024/02/09 05:24:56;;;;;;;47.40;27.38;;;3.90;93.60;;;;;;5072387;28;20378;-70
2024/02/09 05:27:23;;;;;;;42.13;26.52;;;3.90;93.30;;;;;;5072312;28;20032;-71
2024/02/09 05:29:50;;;;;;;41.33;25.70;;;3.60;93.10;;;;;;5072343;28;20067;-70
2024/02/09 05:32:20;;;;;;;39.13;26.33;;;3.70;94.00;;;;;;5070487;28;20064;-71
2024/02/09 05:34:48;;;;;;;37.38;24.00;;;3.80;93.80;;;;;;5069533;28;20040;-70
2024/02/09 05:37:17;;;;;;;39.35;23.67;;;3.90;93.80;;;;;;5063552;28;20036;-71
2024/02/09 05:39:45;;;;;;;41.97;21.40;;;4.00;93.40;;;;;;5080458;28;20033;-71
2024/02/09 05:42:12;;;;;;;36.53;23.58;;;4.10;93.40;;;;;;5048024;28;20032;-71
2024/02/09 05:44:40;;;;;;;34.58;22.63;;;4.20;92.80;;;;;;5065232;28;20032;-73
2024/02/09 05:47:07;;;;;;;34.03;22.00;;;3.60;93.90;;;;;;5066488;28;20032;-71
2024/02/09 05:49:37;;;;;;;39.28;22.77;;;3.60;94.60;;;;;;5072646;28;20041;-71
2024/02/09 05:52:07;;;;;;;46.67;25.70;;;3.80;95.30;;;;;;5069761;28;20043;-75
2024/02/09 05:54:35;;;;;;;196.82;91.63;;;4.10;94.80;;;;;;5051663;28;20033;-70
2024/02/09 05:57:02;;;;;;;44.42;29.25;;;4.10;94.20;;;;;;5069436;28;20143;-72
2024/02/09 05:59:29;;;;;;;34.90;23.98;;;4.20;94.10;;;;;;5068374;28;20036;-72
2024/02/09 06:01:58;;;;;;;33.58;21.20;;;4.30;93.70;;;;;;5062093;28;20433;-70
2024/02/09 06:04:26;;;;;;;33.00;22.55;;;4.40;93.30;;;;;;5069343;28;20445;-69
2024/02/09 06:06:54;;;;;;;33.55;23.08;;;3.90;93.70;;;;;;5063563;28;20147;-71
2024/02/09 06:09:21;;;;;;;33.10;20.90;;;3.60;94.60;;;;;;5066631;28;20040;-72
2024/02/09 06:11:48;;;;;;;35.80;23.40;;;3.90;95.60;;;;;;5061236;28;20040;-72
2024/02/09 06:14:16;;;;;;;36.10;25.02;;;4.20;94.80;;;;;;5066465;28;20046;-72
2024/02/09 06:16:45;;;;;;;37.28;25.70;;;4.30;93.50;;;;;;5066451;28;20047;-73
2024/02/09 06:19:13;;;;;;;45.42;25.85;;;4.30;93.30;;;;;;5063413;28;20680;-71
2024/02/09 06:21:40;;;;;;;37.67;24.50;;;4.40;92.90;;;;;;5067121;28;20428;-71
2024/02/09 06:24:08;;;;;;;37.83;26.08;;;4.50;92.70;;;;;;5068707;28;20032;-72
2024/02/09 06:26:35;;;;;;;38.63;24.73;;;4.60;92.60;;;;;;5068530;28;20091;-72
2024/02/09 06:29:03;;;;;;;36.63;24.23;;;4.40;92.40;;;;;;5068468;28;20033;-72
2024/02/09 06:31:31;;;;;;;38.30;25.67;;;3.80;93.10;;;;;;5072244;28;20102;-70
2024/02/09 06:33:59;;;;;;;37.40;25.40;;;3.70;93.90;;;;;;5075004;28;20029;-71
2024/02/09 06:36:27;;;;;;;42.00;26.20;;;3.90;94.50;;;;;;5069524;28;20036;-73
2024/02/09 06:38:54;;;;;;;39.13;25.02;;;4.40;93.90;;;;;;5069132;28;20040;-70
2024/02/09 06:41:21;;;;;;;40.15;25.33;;;4.70;93.00;;;;;;5067213;28;20497;-73
2024/02/09 06:43:49;;;;;;;44.63;25.60;;;4.90;92.60;;;;;;5067354;28;20056;-72
2024/02/09 06:46:17;;;;;;;42.72;26.90;;;5.10;92.10;;;;;;5046792;28;20052;-71
2024/02/09 06:48:46;;;;;;;41.28;27.42;;;5.20;91.70;;;;;;5074873;28;20073;-72
2024/02/09 06:51:19;;;;;;;39.90;25.55;;;5.20;91.40;;;;;;5066717;28;20041;-72
2024/02/09 06:53:47;;;;;;;45.25;25.35;;;5.20;91.90;;;;;;5076524;28;20111;-72
2024/02/09 06:56:31;;;;;;;37.88;25.63;;;5.40;91.80;;;;;;5066219;28;20049;-73
2024/02/09 06:59:00;;;;;;;154.50;83.38;;;5.60;91.50;;;;;;5074850;28;20054;-72
2024/02/09 07:01:31;;;;;;;111.97;59.97;;;5.70;91.60;;;;;;5072589;28;20068;-72
2024/02/09 07:03:59;;;;;;;43.70;29.70;;;5.80;91.20;;;;;;5059859;28;20114;-72
2024/02/09 07:06:26;;;;;;;36.95;26.08;;;5.90;91.00;;;;;;5064902;28;20082;-73
2024/02/09 07:08:53;;;;;;;35.58;22.88;;;6.00;90.70;;;;;;5060898;28;20357;-73
2024/02/09 07:11:21;;;;;;;39.53;24.50;;;6.00;90.50;;;;;;5065693;28;20380;-72
2024/02/09 07:13:48;;;;;;;38.00;23.60;;;5.90;90.80;;;;;;5061316;28;20082;-73
2024/02/09 07:16:17;;;;;;;37.38;24.13;;;5.90;90.70;;;;;;5064861;28;20472;-72
2024/02/09 07:18:44;;;;;;;37.40;24.13;;;5.60;91.00;;;;;;5060122;28;20116;-72
2024/02/09 07:21:14;;;;;;;37.10;23.10;;;5.10;91.80;;;;;;5060350;28;20619;-72
2024/02/09 07:23:49;;;;;;;33.92;21.02;;;4.90;92.80;;;;;;5065559;28;20036;-72
2024/02/09 07:26:18;;;;;;;36.13;19.73;;;5.00;92.80;;;;;;5059532;28;20501;-72
2024/02/09 07:28:45;;;;;;;28.23;18.55;;;5.10;92.70;;;;;;5063650;28;20491;-72
2024/02/09 07:31:15;;;;;;;29.70;18.70;;;5.60;92.30;;;;;;5059008;28;20557;-71
2024/02/09 07:33:43;;;;;;;27.30;17.77;;;5.80;91.50;;;;;;5060363;28;20031;-72
2024/02/09 07:36:11;;;;;;;27.13;18.27;;;6.00;91.50;;;;;;5070764;28;20076;-71
2024/02/09 07:38:39;;;;;;;31.15;22.00;;;6.30;90.90;;;;;;5068017;28;20040;-72
2024/02/09 07:41:13;;;;;;;52.75;29.58;;;6.60;90.40;;;;;;5049112;28;20036;-72
2024/02/09 07:43:40;;;;;;;53.78;32.10;;;6.70;90.00;;;;;;5071827;28;20040;-70
2024/02/09 07:46:08;;;;;;;54.97;33.40;;;6.50;90.20;;;;;;5070278;28;20033;-72
2024/02/09 07:48:35;;;;;;;57.78;34.30;;;6.50;90.10;;;;;;5071807;28;20406;-71
2024/02/09 07:51:06;;;;;;;59.85;35.80;;;6.80;89.60;;;;;;5054753;28;20041;-72
2024/02/09 07:53:35;;;;;;;61.88;36.85;;;7.00;89.00;;;;;;5066672;28;20090;-73
2024/02/09 07:56:03;;;;;;;63.50;39.63;;;7.10;88.90;;;;;;5066632;28;20055;-74
2024/02/09 07:58:32;;;;;;;69.95;39.83;;;7.30;88.20;;;;;;5073802;28;20047;-71
2024/02/09 08:00:59;;;;;;;58.08;39.70;;;7.50;87.70;;;;;;5074359;28;20033;-71
2024/02/09 08:03:27;;;;;;;62.33;40.20;;;7.80;86.90;;;;;;5059962;28;20376;-73
2024/02/09 08:05:54;;;;;;;59.53;38.70;;;7.80;86.30;;;;;;5073886;28;20036;-73
2024/02/09 08:08:22;;;;;;;65.32;38.75;;;7.90;86.70;;;;;;5060560;28;20037;-72
2024/02/09 08:10:49;;;;;;;68.85;39.03;;;7.80;86.80;;;;;;5065118;28;20117;-72
2024/02/09 08:13:17;;;;;;;63.70;38.72;;;7.70;86.90;;;;;;5066245;28;20135;-72
2024/02/09 08:15:45;;;;;;;55.75;36.70;;;7.70;87.30;;;;;;5052460;28;20041;-73
2024/02/09 08:18:13;;;;;;;55.08;35.05;;;7.70;88.00;;;;;;5035186;28;20056;-73
2024/02/09 08:20:41;;;;;;;50.28;30.80;;;7.90;87.60;;;;;;5063992;28;20083;-72
2024/02/09 08:23:08;;;;;;;42.25;30.55;;;8.20;86.10;;;;;;5060166;28;20033;-71
2024/02/09 08:25:53;;;;;;;42.15;28.95;;;8.20;85.40;;;;;;5059946;28;20032;-73
2024/02/09 08:28:21;;;;;;;44.55;30.73;;;8.40;85.40;;;;;;5069196;28;20046;-71
2024/02/09 08:30:50;;;;;;;51.92;30.67;;;8.50;85.10;;;;;;5064194;28;20045;-71
2024/02/09 08:33:19;;;;;;;43.28;28.73;;;8.60;85.00;;;;;;5054216;28;20523;-71
2024/02/09 08:35:46;;;;;;;38.78;27.52;;;8.70;84.00;;;;;;5067619;28;20481;-72
2024/02/09 08:38:13;;;;;;;42.65;29.63;;;8.80;84.50;;;;;;5054382;28;20037;-72
2024/02/09 08:40:41;;;;;;;44.20;28.88;;;9.10;83.50;;;;;;5058977;28;20039;-71
2024/02/09 08:43:10;;;;;;;43.95;27.73;;;9.30;83.20;;;;;;5072202;28;20511;-72
2024/02/09 08:45:38;;;;;;;44.58;30.20;;;9.30;82.80;;;;;;5074494;28;20106;-74
2024/02/09 08:48:05;;;;;;;43.80;31.13;;;9.50;82.70;;;;;;5073375;28;20029;-72
2024/02/09 08:50:32;;;;;;;50.13;33.83;;;9.60;82.10;;;;;;5061503;28;20040;-71
2024/02/09 08:53:00;;;;;;;43.63;31.73;;;9.80;81.70;;;;;;5072820;28;20097;-73
2024/02/09 08:55:27;;;;;;;45.72;31.38;;;9.90;81.40;;;;;;5069145;28;20033;-72
2024/02/09 08:57:55;;;;;;;45.38;31.05;;;9.80;80.60;;;;;;5076524;28;20045;-72
2024/02/09 09:00:24;;;;;;;45.60;31.77;;;9.90;81.00;;;;;;5063785;28;20048;-71
2024/02/09 09:02:52;;;;;;;47.10;30.13;;;10.00;80.40;;;;;;5049309;28;20040;-74
2024/02/09 09:05:37;;;;;;;44.88;30.30;;;10.20;80.00;;;;;;5066110;28;20021;-74
2024/02/09 09:08:07;;;;;;;51.25;31.08;;;10.50;79.50;;;;;;5064675;28;20032;-72
2024/02/09 09:10:34;;;;;;;40.90;29.08;;;10.90;78.60;;;;;;5076732;28;20041;-71
2024/02/09 09:13:01;;;;;;;48.38;29.27;;;10.80;78.40;;;;;;5050019;28;20040;-72
2024/02/09 09:15:29;;;;;;;39.95;26.85;;;10.70;78.50;;;;;;5069389;28;20029;-72
2024/02/09 09:17:56;;;;;;;41.88;28.02;;;10.80;78.60;;;;;;5071471;28;20032;-71
2024/02/09 09:20:24;;;;;;;35.70;26.83;;;11.00;78.60;;;;;;5053604;28;20040;-71
2024/02/09 09:22:51;;;;;;;39.60;25.88;;;11.10;77.90;;;;;;5068295;28;20040;-71
2024/02/09 09:25:18;;;;;;;35.67;25.70;;;11.20;77.40;;;;;;5067457;28;20388;-71
2024/02/09 09:27:46;;;;;;;34.05;24.48;;;11.50;76.40;;;;;;5063857;28;20123;-72
2024/02/09 09:30:31;;;;;;;35.08;24.70;;;11.50;75.90;;;;;;5068426;28;20337;-71
2024/02/09 09:32:58;;;;;;;35.22;24.58;;;11.50;76.70;;;;;;5061873;28;20095;-72
2024/02/09 09:35:25;;;;;;;45.03;25.65;;;11.70;76.60;;;;;;5068081;28;20029;-71
2024/02/09 09:37:53;;;;;;;37.92;25.35;;;11.60;75.70;;;;;;5067623;28;20385;-70
2024/02/09 09:40:26;;;;;;;35.50;23.77;;;11.50;75.90;;;;;;5049911;28;20044;-72
2024/02/09 09:42:54;;;;;;;35.72;23.98;;;11.30;76.40;;;;;;5058539;28;20356;-73
2024/02/09 09:45:21;;;;;;;39.22;24.23;;;11.40;76.40;;;;;;5059242;28;20036;-72
2024/02/09 09:47:50;;;;;;;35.60;23.27;;;11.80;77.20;;;;;;5078203;28;20437;-71
2024/02/09 09:50:18;;;;;;;28.17;21.98;;;12.10;76.20;;;;;;5068529;28;20029;-72
2024/02/09 09:52:53;;;;;;;28.85;20.70;;;12.30;75.80;;;;;;5065871;28;20097;-72
2024/02/09 09:55:24;;;;;;;31.73;21.48;;;12.50;74.50;;;;;;5054004;28;20112;-71
2024/02/09 09:57:53;;;;;;;28.90;20.83;;;12.50;73.80;;;;;;5049765;28;20063;-73
2024/02/09 10:00:21;;;;;;;33.60;21.77;;;11.90;75.00;;;;;;5073985;28;20043;-70
2024/02/09 10:02:49;;;;;;;26.02;18.50;;;12.60;75.40;;;;;;5069343;28;20454;-73
2024/02/09 10:05:17;;;;;;;30.65;19.25;;;13.40;72.30;;;;;;5050594;28;20028;-72
2024/02/09 10:07:45;;;;;;;27.52;17.95;;;13.70;71.60;;;;;;5068507;28;20036;-73
2024/02/09 10:10:13;;;;;;;23.85;16.58;;;13.60;71.00;;;;;;5064159;28;20029;-74
2024/02/09 10:12:41;;;;;;;27.40;18.85;;;14.10;71.20;;;;;;5047973;28;20032;-72
2024/02/09 10:15:08;;;;;;;25.27;17.73;;;14.70;69.50;;;;;;5066709;28;20461;-74
2024/02/09 10:17:53;;;;;;;26.33;16.85;;;15.10;68.50;;;;;;5057832;28;20047;-75
2024/02/09 10:20:20;;;;;;;23.48;17.13;;;15.60;66.90;;;;;;5071333;28;20036;-75
2024/02/09 10:22:48;;;;;;;21.77;15.48;;;15.60;66.50;;;;;;5058894;28;20376;-71
2024/02/09 10:25:20;;;;;;;20.88;15.68;;;15.90;66.60;;;;;;5044507;28;20060;-74
2024/02/09 10:27:50;;;;;;;23.10;14.73;;;15.50;65.10;;;;;;5065459;28;20049;-73
2024/02/09 10:30:18;;;;;;;21.77;15.10;;;15.40;65.80;;;;;;5038869;28;20031;-72
2024/02/09 10:32:45;;;;;;;22.23;14.75;;;15.40;65.50;;;;;;5062500;28;20564;-71
2024/02/09 10:35:13;;;;;;;22.00;13.95;;;15.20;65.80;;;;;;5063442;28;20049;-72
2024/02/09 10:37:41;;;;;;;17.90;13.20;;;15.00;66.00;;;;;;5064692;28;20040;-73
2024/02/09 10:40:10;;;;;;;22.35;13.23;;;15.10;65.40;;;;;;5067727;28;20068;-73
2024/02/09 10:42:43;;;;;;;22.27;14.02;;;15.60;65.00;;;;;;5062984;28;20530;-73
2024/02/09 10:45:12;;;;;;;19.20;13.20;;;15.20;65.10;;;;;;5068582;28;20042;-75
2024/02/09 10:47:54;;;;;;;16.90;11.73;;;15.90;65.70;;;;;;5070786;28;20441;-72
2024/02/09 10:50:22;;;;;;;19.70;12.38;;;16.00;63.80;;;;;;5040823;28;20044;-72
2024/02/09 10:52:52;;;;;;;18.23;11.05;;;16.10;62.90;;;;;;5062048;28;20387;-71
2024/02/09 10:55:28;;;;;;;17.70;12.50;;;16.20;63.00;;;;;;5060185;28;20036;-71
2024/02/09 10:57:56;;;;;;;21.20;11.07;;;16.50;64.00;;;;;;5061312;28;20041;-71
2024/02/09 11:00:25;;;;;;;19.65;11.85;;;17.00;63.60;;;;;;5046360;28;20035;-71
2024/02/09 11:02:55;;;;;;;24.05;13.50;;;17.50;62.70;;;;;;5056098;28;20045;-72
2024/02/09 11:05:23;;;;;;;15.98;11.80;;;17.50;61.80;;;;;;5056343;28;20117;-71
2024/02/09 11:08:09;;;;;;;21.35;11.68;;;17.60;62.50;;;;;;5061781;28;20037;-71
2024/02/09 11:10:42;;;;;;;18.90;11.73;;;17.60;62.30;;;;;;5050975;28;20549;-72
2024/02/09 11:13:22;;;;;;;17.00;12.07;;;17.20;62.20;;;;;;5064139;28;20040;-73
2024/02/09 11:16:17;;;;;;;17.30;11.07;;;17.40;61.80;;;;;;5047292;28;20182;-72
2024/02/09 11:18:47;;;;;;;18.63;11.65;;;17.90;60.30;;;;;;5048468;28;20458;-73
2024/02/09 11:21:15;;;;;;;19.85;11.65;;;17.50;60.50;;;;;;5066115;28;20040;-73
2024/02/09 11:23:45;;;;;;;16.60;10.80;;;17.10;61.50;;;;;;5050192;28;20064;-72
2024/02/09 11:26:39;;;;;;;19.43;10.70;;;17.20;61.50;;;;;;5066410;28;20082;-72
2024/02/09 11:29:06;;;;;;;16.38;10.93;;;17.70;61.50;;;;;;5065566;28;20045;-72
2024/02/09 11:31:34;;;;;;;13.82;10.00;;;18.40;59.60;;;;;;5056438;28;20072;-70
2024/02/09 11:34:02;;;;;;;15.85;10.45;;;18.80;58.10;;;;;;5069819;28;20037;-71
2024/02/09 11:36:47;;;;;;;16.00;10.07;;;20.80;56.40;;;;;;5063457;28;20463;-70
2024/02/09 11:39:16;;;;;;;16.05;10.20;;;21.90;54.40;;;;;;5062672;28;20029;-69
2024/02/09 11:41:44;;;;;;;17.77;10.52;;;21.00;55.80;;;;;;5033027;28;20120;-72
2024/02/09 11:44:12;;;;;;;17.20;10.05;;;19.70;56.20;;;;;;5050833;28;20094;-72
2024/02/09 11:46:41;;;;;;;14.80;9.38;;;19.10;56.70;;;;;;5044016;28;20048;-72
2024/02/09 11:49:11;;;;;;;16.60;9.82;;;18.90;57.60;;;;;;5032758;28;20021;-74
2024/02/09 11:51:38;;;;;;;13.65;9.18;;;19.00;57.20;;;;;;5060755;28;20043;-71
2024/02/09 11:54:10;;;;;;;14.23;9.93;;;19.20;57.40;;;;;;5037371;28;20476;-72
2024/02/09 11:56:40;;;;;;;17.48;10.43;;;19.20;56.90;;;;;;5065640;28;20391;-72
2024/02/09 11:59:09;;;;;;;16.02;9.18;;;19.10;57.30;;;;;;5069287;28;20117;-72
2024/02/09 12:01:39;;;;;;;16.27;10.07;;;19.10;57.10;;;;;;5070454;28;20443;-74
2024/02/09 12:04:07;;;;;;;15.20;9.68;;;19.50;56.90;;;;;;5050394;28;20044;-75
2024/02/09 12:06:36;;;;;;;21.17;10.13;;;19.60;56.20;;;;;;5049699;28;20041;-73
2024/02/09 12:09:05;;;;;;;19.05;9.77;;;19.40;54.90;;;;;;5070355;28;20052;-75
2024/02/09 12:11:33;;;;;;;17.98;9.98;;;19.80;56.60;;;;;;5081762;28;20032;-73
2024/02/09 12:14:01;;;;;;;16.23;10.43;;;20.40;55.30;;;;;;5041652;28;20427;-73
2024/02/09 12:16:28;;;;;;;18.33;9.15;;;20.90;54.30;;;;;;5035522;28;20036;-74
2024/02/09 12:18:59;;;;;;;13.70;10.10;;;21.20;53.10;;;;;;5059386;28;20388;-74
2024/02/09 12:21:28;;;;;;;15.70;9.15;;;20.90;52.70;;;;;;5078578;28;20044;-74
2024/02/09 12:23:55;;;;;;;11.52;8.48;;;21.20;53.10;;;;;;5063055;28;20051;-73
2024/02/09 12:26:23;;;;;;;21.08;10.18;;;21.70;52.00;;;;;;5036499;28;20048;-72
2024/02/09 12:28:53;;;;;;;17.70;11.10;;;21.80;51.60;;;;;;5065101;28;20043;-72
2024/02/09 12:31:21;;;;;;;17.77;9.73;;;21.60;51.50;;;;;;5054776;28;20124;-75
2024/02/09 12:33:50;;;;;;;16.70;9.23;;;21.10;52.40;;;;;;5066535;28;20033;-72
2024/02/09 12:36:20;;;;;;;17.42;8.70;;;21.10;53.30;;;;;;5054164;28;20446;-73
2024/02/09 12:38:55;;;;;;;15.20;9.23;;;21.20;53.60;;;;;;5053474;28;20037;-72
2024/02/09 12:41:26;;;;;;;14.63;8.25;;;20.90;52.50;;;;;;5036372;28;20363;-74
2024/02/09 12:43:56;;;;;;;18.30;8.05;;;20.90;53.40;;;;;;5053970;28;20111;-74
2024/02/09 12:46:42;;;;;;;12.27;7.47;;;23.40;51.80;;;;;;5060254;28;20043;-73
2024/02/09 12:49:13;;;;;;;16.17;8.50;;;28.20;46.60;;;;;;5073218;28;20090;-74
2024/02/09 12:51:42;;;;;;;12.27;7.18;;;30.80;42.60;;;;;;5058740;28;20029;-72
2024/02/09 12:54:10;;;;;;;10.95;7.75;;;27.60;42.60;;;;;;5065005;28;20045;-72
2024/02/09 12:56:38;;;;;;;15.15;8.07;;;24.80;46.60;;;;;;5064176;28;20492;-73
2024/02/09 12:59:07;;;;;;;12.95;7.68;;;22.20;49.00;;;;;;5072881;28;20047;-72
2024/02/09 13:01:34;;;;;;;12.88;7.45;;;21.30;50.80;;;;;;5072695;28;20032;-73
2024/02/09 13:04:02;;;;;;;11.18;7.18;;;21.70;51.70;;;;;;5072889;28;20086;-73
2024/02/09 13:06:31;;;;;;;11.45;6.88;;;24.30;48.10;;;;;;5073008;28;20039;-73
2024/02/09 13:08:59;;;;;;;13.20;7.47;;;28.90;45.10;;;;;;5059610;28;20033;-73
2024/02/09 13:11:26;;;;;;;12.07;7.00;;;30.40;42.90;;;;;;5072543;28;20028;-72
2024/02/09 13:13:54;;;;;;;10.85;6.65;;;28.80;43.40;;;;;;5072868;28;20072;-73
2024/02/09 13:16:21;;;;;;;12.88;6.50;;;29.90;43.00;;;;;;5072335;28;20093;-73
2024/02/09 13:18:48;;;;;;;10.90;6.00;;;29.40;42.50;;;;;;5071698;28;20384;-73
2024/02/09 13:21:16;;;;;;;9.93;5.10;;;29.50;42.50;;;;;;5072109;28;20387;-72
2024/02/09 13:23:45;;;;;;;10.93;6.75;;;29.20;42.40;;;;;;5072140;28;20476;-73
2024/02/09 13:26:15;;;;;;;12.85;5.25;;;30.30;41.00;;;;;;5071416;28;20029;-71
2024/02/09 13:28:42;;;;;;;10.35;6.10;;;30.80;40.50;;;;;;5072202;28;20032;-74
2024/02/09 13:31:10;;;;;;;10.13;6.13;;;31.60;40.40;;;;;;5071235;28;20036;-74
2024/02/09 13:33:38;;;;;;;12.35;6.43;;;31.60;40.00;;;;;;5072331;28;20434;-73
2024/02/09 13:36:08;;;;;;;11.70;6.90;;;31.50;39.80;;;;;;5071213;28;20025;-72
2024/02/09 13:38:36;;;;;;;13.93;7.00;;;29.70;40.50;;;;;;5071506;28;20082;-74
2024/02/09 13:41:05;;;;;;;13.65;6.60;;;27.90;41.40;;;;;;5070940;28;20128;-73
2024/02/09 13:43:32;;;;;;;11.18;6.15;;;26.00;43.40;;;;;;5071274;28;20102;-73
2024/02/09 13:46:00;;;;;;;14.18;6.55;;;26.00;43.70;;;;;;5072776;28;20412;-73
2024/02/09 13:48:27;;;;;;;14.48;6.47;;;24.60;45.00;;;;;;5071757;28;20043;-75
2024/02/09 13:50:55;;;;;;;12.32;6.32;;;25.30;44.50;;;;;;5054492;28;20054;-72
2024/02/09 13:53:22;;;;;;;11.93;6.18;;;27.20;43.10;;;;;;5071347;28;20479;-74
2024/02/09 13:55:50;;;;;;;8.15;5.80;;;28.90;41.80;;;;;;5071612;28;20042;-75
2024/02/09 13:58:18;;;;;;;11.25;6.60;;;29.50;41.60;;;;;;5059779;28;20468;-75
2024/02/09 14:00:46;;;;;;;12.80;6.55;;;28.70;41.20;;;;;;5057419;28;20039;-74
2024/02/09 14:03:13;;;;;;;10.48;5.82;;;26.30;42.40;;;;;;5072021;28;20456;-75
2024/02/09 14:05:40;;;;;;;9.27;5.38;;;26.60;43.20;;;;;;5052569;28;20037;-74
2024/02/09 14:08:07;;;;;;;10.35;5.93;;;27.00;42.60;;;;;;5065012;28;20507;-72
2024/02/09 14:10:40;;;;;;;9.02;5.07;;;28.10;42.20;;;;;;5065644;28;20119;-73
2024/02/09 14:13:07;;;;;;;7.88;4.57;;;28.80;41.40;;;;;;5051981;28;20036;-72
2024/02/09 14:15:35;;;;;;;9.48;4.50;;;30.00;40.10;;;;;;5052288;28;20044;-73
2024/02/09 14:18:03;;;;;;;7.68;4.10;;;30.40;39.50;;;;;;5052062;28;20394;-72
2024/02/09 14:20:32;;;;;;;9.90;4.33;;;30.60;39.20;;;;;;5052300;28;20427;-73
2024/02/09 14:22:59;;;;;;;7.05;4.07;;;29.50;39.90;;;;;;5065243;28;20360;-72
2024/02/09 14:25:30;;;;;;;8.80;4.65;;;28.60;40.40;;;;;;5052920;28;20131;-75
2024/02/09 14:27:58;;;;;;;8.70;4.32;;;29.90;40.30;;;;;;5065041;28;20029;-74
2024/02/09 14:30:25;;;;;;;9.18;4.72;;;31.20;39.20;;;;;;5052956;28;20500;-74
2024/02/09 14:32:54;;;;;;;10.18;4.45;;;31.40;39.50;;;;;;5034600;28;20055;-74